sensor_id;sensor_type;location;lat;lon;timestamp;pressure;altitude;pressure_sealevel;temperature;humidity
70053;BME280;57398;52.032;4.376;2023-01-26T00:00:58;102815.41;;;0.35;100.00
70053;BME280;57398;52.032;4.376;2023-01-26T00:03:48;102812.00;;;0.34;100.00
70053;BME280;57398;52.032;4.376;2023-01-26T00:06:36;102801.28;;;0.29;100.00
70053;BME280;57398;52.032;4.376;2023-01-26T00:09:24;102811.13;;;0.35;100.00
70053;BME280;57398;52.032;4.376;2023-01-26T00:12:12;102807.63;;;0.36;100.00
70053;BME280;57398;52.032;4.376;2023-01-26T00:15:00;102796.59;;;0.36;100.00
70053;BME280;57398;52.032;4.376;2023-01-26T00:17:48;102805.69;;;0.40;100.00
70053;BME280;57398;52.032;4.376;2023-01-26T00:20:39;102809.16;;;0.39;100.00
70053;BME280;57398;52.032;4.376;2023-01-26T00:23:28;102798.25;;;0.37;100.00
70053;BME280;57398;52.032;4.376;2023-01-26T00:26:18;102794.66;;;0.39;100.00
70053;BME280;57398;52.032;4.376;2023-01-26T00:29:06;102791.88;;;0.43;100.00
70053;BME280;57398;52.032;4.376;2023-01-26T00:31:54;102786.78;;;0.43;100.00
70053;BME280;57398;52.032;4.376;2023-01-26T00:34:43;102791.16;;;0.40;100.00
70053;BME280;57398;52.032;4.376;2023-01-26T00:37:33;102788.00;;;0.37;100.00
70053;BME280;57398;52.032;4.376;2023-01-26T00:40:21;102787.50;;;0.45;100.00
70053;BME280;57398;52.032;4.376;2023-01-26T00:43:09;102792.50;;;0.46;100.00
70053;BME280;57398;52.032;4.376;2023-01-26T00:45:57;102783.09;;;0.47;100.00
70053;BME280;57398;52.032;4.376;2023-01-26T00:48:45;102776.31;;;0.46;100.00
70053;BME280;57398;52.032;4.376;2023-01-26T00:51:33;102772.06;;;0.46;100.00
70053;BME280;57398;52.032;4.376;2023-01-26T00:54:23;102768.16;;;0.53;100.00
70053;BME280;57398;52.032;4.376;2023-01-26T00:57:11;102775.31;;;0.48;100.00
70053;BME280;57398;52.032;4.376;2023-01-26T00:59:59;102766.63;;;0.51;100.00
70053;BME280;57398;52.032;4.376;2023-01-26T01:02:47;102763.63;;;0.57;100.00
70053;BME280;57398;52.032;4.376;2023-01-26T01:05:35;102765.78;;;0.50;100.00
70053;BME280;57398;52.032;4.376;2023-01-26T01:08:23;102757.81;;;0.55;100.00
70053;BME280;57398;52.032;4.376;2023-01-26T01:11:13;102762.81;;;0.56;100.00
70053;BME280;57398;52.032;4.376;2023-01-26T01:14:01;102763.22;;;0.50;100.00
70053;BME280;57398;52.032;4.376;2023-01-26T01:16:49;102762.91;;;0.55;100.00
70053;BME280;57398;52.032;4.376;2023-01-26T01:19:38;102765.16;;;0.59;100.00
70053;BME280;57398;52.032;4.376;2023-01-26T01:22:26;102762.72;;;0.58;100.00
70053;BME280;57398;52.032;4.376;2023-01-26T01:25:14;102758.53;;;0.57;100.00
70053;BME280;57398;52.032;4.376;2023-01-26T01:28:04;102767.72;;;0.59;100.00
70053;BME280;57398;52.032;4.376;2023-01-26T01:30:52;102767.53;;;0.62;100.00
70053;BME280;57398;52.032;4.376;2023-01-26T01:33:41;102768.66;;;0.58;100.00
70053;BME280;57398;52.032;4.376;2023-01-26T01:36:29;102765.16;;;0.59;100.00
70053;BME280;57398;52.032;4.376;2023-01-26T01:39:17;102762.59;;;0.59;100.00
70053;BME280;57398;52.032;4.376;2023-01-26T01:42:05;102769.78;;;0.67;100.00
70053;BME280;57398;52.032;4.376;2023-01-26T01:45:31;102767.41;;;0.64;100.00
70053;BME280;57398;52.032;4.376;2023-01-26T01:48:26;102764.84;;;0.64;100.00
70053;BME280;57398;52.032;4.376;2023-01-26T01:51:19;102760.13;;;0.71;100.00
70053;BME280;57398;52.032;4.376;2023-01-26T01:54:10;102765.47;;;0.68;100.00
70053;BME280;57398;52.032;4.376;2023-01-26T01:57:03;102768.75;;;0.70;100.00
70053;BME280;57398;52.032;4.376;2023-01-26T02:00:05;102764.75;;;0.66;100.00
70053;BME280;57398;52.032;4.376;2023-01-26T02:02:58;102763.09;;;0.77;100.00
70053;BME280;57398;52.032;4.376;2023-01-26T02:06:04;102755.41;;;0.77;100.00
70053;BME280;57398;52.032;4.376;2023-01-26T02:08:55;102762.28;;;0.77;100.00
70053;BME280;57398;52.032;4.376;2023-01-26T02:11:44;102763.22;;;0.76;100.00
70053;BME280;57398;52.032;4.376;2023-01-26T02:14:33;102762.28;;;0.77;100.00
70053;BME280;57398;52.032;4.376;2023-01-26T02:17:21;102768.00;;;0.80;100.00
70053;BME280;57398;52.032;4.376;2023-01-26T02:20:17;102763.59;;;0.82;100.00
70053;BME280;57398;52.032;4.376;2023-01-26T02:23:14;102760.00;;;0.85;100.00
70053;BME280;57398;52.032;4.376;2023-01-26T02:26:10;102763.97;;;0.89;100.00
70053;BME280;57398;52.032;4.376;2023-01-26T02:29:00;102760.91;;;0.84;100.00
70053;BME280;57398;52.032;4.376;2023-01-26T02:31:48;102754.91;;;0.85;100.00
70053;BME280;57398;52.032;4.376;2023-01-26T02:34:36;102757.22;;;0.88;100.00
70053;BME280;57398;52.032;4.376;2023-01-26T02:37:25;102762.84;;;0.93;100.00
70053;BME280;57398;52.032;4.376;2023-01-26T02:40:23;102768.75;;;0.94;100.00
70053;BME280;57398;52.032;4.376;2023-01-26T02:43:14;102761.94;;;0.94;100.00
70053;BME280;57398;52.032;4.376;2023-01-26T02:46:01;102757.31;;;0.99;100.00
70053;BME280;57398;52.032;4.376;2023-01-26T02:48:49;102765.19;;;0.96;100.00
70053;BME280;57398;52.032;4.376;2023-01-26T02:51:55;102764.34;;;0.96;100.00
70053;BME280;57398;52.032;4.376;2023-01-26T02:54:43;102769.59;;;0.94;100.00
70053;BME280;57398;52.032;4.376;2023-01-26T02:57:50;102768.66;;;0.95;100.00
70053;BME280;57398;52.032;4.376;2023-01-26T03:00:39;102768.44;;;0.98;100.00
70053;BME280;57398;52.032;4.376;2023-01-26T03:03:28;102766.50;;;1.02;100.00
70053;BME280;57398;52.032;4.376;2023-01-26T03:06:28;102767.44;;;1.01;100.00
70053;BME280;57398;52.032;4.376;2023-01-26T03:09:16;102770.81;;;1.01;100.00
70053;BME280;57398;52.032;4.376;2023-01-26T03:12:05;102765.47;;;1.04;100.00
70053;BME280;57398;52.032;4.376;2023-01-26T03:14:55;102774.28;;;1.00;100.00
70053;BME280;57398;52.032;4.376;2023-01-26T03:18:03;102771.72;;;1.00;100.00
70053;BME280;57398;52.032;4.376;2023-01-26T03:21:17;102775.00;;;1.02;100.00
70053;BME280;57398;52.032;4.376;2023-01-26T03:24:23;102766.41;;;1.03;100.00
70053;BME280;57398;52.032;4.376;2023-01-26T03:27:34;102758.81;;;1.02;100.00
70053;BME280;57398;52.032;4.376;2023-01-26T03:30:23;102769.88;;;1.02;100.00
70053;BME280;57398;52.032;4.376;2023-01-26T03:33:12;102763.84;;;1.03;100.00
70053;BME280;57398;52.032;4.376;2023-01-26T03:36:00;102765.69;;;1.01;100.00
70053;BME280;57398;52.032;4.376;2023-01-26T03:38:48;102774.78;;;1.06;100.00
70053;BME280;57398;52.032;4.376;2023-01-26T03:41:36;102770.16;;;1.11;100.00
70053;BME280;57398;52.032;4.376;2023-01-26T03:44:42;102769.72;;;1.17;100.00
70053;BME280;57398;52.032;4.376;2023-01-26T03:47:47;102772.50;;;1.14;100.00
70053;BME280;57398;52.032;4.376;2023-01-26T03:50:55;102778.31;;;1.16;100.00
70053;BME280;57398;52.032;4.376;2023-01-26T03:54:00;102776.72;;;1.15;100.00
70053;BME280;57398;52.032;4.376;2023-01-26T03:57:06;102781.50;;;1.19;100.00
70053;BME280;57398;52.032;4.376;2023-01-26T03:59:54;102775.53;;;1.19;100.00
70053;BME280;57398;52.032;4.376;2023-01-26T04:02:42;102782.31;;;1.20;100.00
70053;BME280;57398;52.032;4.376;2023-01-26T04:05:48;102770.56;;;1.17;100.00
70053;BME280;57398;52.032;4.376;2023-01-26T04:09:03;102790.69;;;1.22;100.00
70053;BME280;57398;52.032;4.376;2023-01-26T04:11:51;102774.31;;;1.24;100.00
70053;BME280;57398;52.032;4.376;2023-01-26T04:14:40;102771.13;;;1.21;100.00
70053;BME280;57398;52.032;4.376;2023-01-26T04:17:45;102781.28;;;1.22;100.00
70053;BME280;57398;52.032;4.376;2023-01-26T04:20:51;102780.47;;;1.22;100.00
70053;BME280;57398;52.032;4.376;2023-01-26T04:23:57;102783.72;;;1.24;100.00
70053;BME280;57398;52.032;4.376;2023-01-26T04:26:47;102786.50;;;1.21;100.00
70053;BME280;57398;52.032;4.376;2023-01-26T04:29:35;102782.78;;;1.25;100.00
70053;BME280;57398;52.032;4.376;2023-01-26T04:32:23;102779.84;;;1.18;100.00
70053;BME280;57398;52.032;4.376;2023-01-26T04:35:13;102771.84;;;1.23;100.00
70053;BME280;57398;52.032;4.376;2023-01-26T04:38:01;102775.00;;;1.27;100.00
70053;BME280;57398;52.032;4.376;2023-01-26T04:40:52;102775.13;;;1.25;100.00
70053;BME280;57398;52.032;4.376;2023-01-26T04:43:41;102774.56;;;1.33;100.00
70053;BME280;57398;52.032;4.376;2023-01-26T04:46:29;102779.59;;;1.34;100.00
70053;BME280;57398;52.032;4.376;2023-01-26T04:49:19;102783.09;;;1.33;100.00
70053;BME280;57398;52.032;4.376;2023-01-26T04:52:07;102773.56;;;1.35;100.00
70053;BME280;57398;52.032;4.376;2023-01-26T04:54:55;102780.06;;;1.39;100.00
70053;BME280;57398;52.032;4.376;2023-01-26T04:57:43;102784.75;;;1.45;100.00
70053;BME280;57398;52.032;4.376;2023-01-26T05:00:32;102776.47;;;1.42;100.00
70053;BME280;57398;52.032;4.376;2023-01-26T05:03:21;102783.00;;;1.46;100.00
70053;BME280;57398;52.032;4.376;2023-01-26T05:06:09;102786.28;;;1.48;100.00
70053;BME280;57398;52.032;4.376;2023-01-26T05:08:57;102784.44;;;1.50;100.00
70053;BME280;57398;52.032;4.376;2023-01-26T05:11:45;102777.22;;;1.55;100.00
70053;BME280;57398;52.032;4.376;2023-01-26T05:14:33;102780.50;;;1.57;100.00
70053;BME280;57398;52.032;4.376;2023-01-26T05:17:23;102780.06;;;1.63;100.00
70053;BME280;57398;52.032;4.376;2023-01-26T05:20:11;102779.00;;;1.66;100.00
70053;BME280;57398;52.032;4.376;2023-01-26T05:23:00;102784.50;;;1.73;100.00
70053;BME280;57398;52.032;4.376;2023-01-26T05:25:48;102783.03;;;1.81;100.00
70053;BME280;57398;52.032;4.376;2023-01-26T05:28:36;102785.06;;;2.12;100.00
70053;BME280;57398;52.032;4.376;2023-01-26T05:31:24;102790.66;;;2.17;100.00
70053;BME280;57398;52.032;4.376;2023-01-26T05:34:14;102788.03;;;2.41;100.00
70053;BME280;57398;52.032;4.376;2023-01-26T05:37:02;102793.38;;;2.49;100.00
70053;BME280;57398;52.032;4.376;2023-01-26T05:39:50;102790.00;;;2.60;100.00
70053;BME280;57398;52.032;4.376;2023-01-26T05:42:38;102804.91;;;2.77;100.00
70053;BME280;57398;52.032;4.376;2023-01-26T05:45:26;102802.22;;;2.90;100.00
70053;BME280;57398;52.032;4.376;2023-01-26T05:48:15;102805.91;;;3.08;100.00
70053;BME280;57398;52.032;4.376;2023-01-26T05:51:04;102811.72;;;3.22;100.00
70053;BME280;57398;52.032;4.376;2023-01-26T05:53:52;102810.75;;;3.34;100.00
70053;BME280;57398;52.032;4.376;2023-01-26T05:56:41;102812.59;;;3.43;100.00
70053;BME280;57398;52.032;4.376;2023-01-26T05:59:29;102805.81;;;3.42;100.00
70053;BME280;57398;52.032;4.376;2023-01-26T06:02:17;102803.81;;;3.46;100.00
70053;BME280;57398;52.032;4.376;2023-01-26T06:05:07;102812.09;;;3.49;100.00
70053;BME280;57398;52.032;4.376;2023-01-26T06:07:57;102806.59;;;3.54;100.00
70053;BME280;57398;52.032;4.376;2023-01-26T06:10:45;102810.06;;;3.64;100.00
70053;BME280;57398;52.032;4.376;2023-01-26T06:13:33;102818.91;;;3.71;100.00
70053;BME280;57398;52.032;4.376;2023-01-26T06:16:21;102821.13;;;3.76;100.00
70053;BME280;57398;52.032;4.376;2023-01-26T06:19:10;102818.50;;;3.87;100.00
70053;BME280;57398;52.032;4.376;2023-01-26T06:21:58;102828.13;;;3.95;100.00
70053;BME280;57398;52.032;4.376;2023-01-26T06:24:48;102830.75;;;4.05;100.00
70053;BME280;57398;52.032;4.376;2023-01-26T06:27:36;102825.38;;;4.08;100.00
70053;BME280;57398;52.032;4.376;2023-01-26T06:30:28;102828.78;;;4.08;100.00
70053;BME280;57398;52.032;4.376;2023-01-26T06:33:16;102834.09;;;4.16;100.00
70053;BME280;57398;52.032;4.376;2023-01-26T06:36:06;102829.25;;;4.23;100.00
70053;BME280;57398;52.032;4.376;2023-01-26T06:38:55;102832.81;;;4.32;100.00
70053;BME280;57398;52.032;4.376;2023-01-26T06:41:47;102833.63;;;4.32;100.00
70053;BME280;57398;52.032;4.376;2023-01-26T06:44:48;102849.75;;;4.34;100.00
70053;BME280;57398;52.032;4.376;2023-01-26T06:47:36;102855.59;;;4.36;100.00
70053;BME280;57398;52.032;4.376;2023-01-26T06:50:30;102859.88;;;4.47;100.00
70053;BME280;57398;52.032;4.376;2023-01-26T06:53:28;102864.63;;;4.52;100.00
70053;BME280;57398;52.032;4.376;2023-01-26T06:56:17;102859.09;;;4.56;100.00
70053;BME280;57398;52.032;4.376;2023-01-26T06:59:06;102875.34;;;4.57;100.00
70053;BME280;57398;52.032;4.376;2023-01-26T07:01:56;102864.66;;;4.61;100.00
70053;BME280;57398;52.032;4.376;2023-01-26T07:04:45;102868.03;;;4.62;100.00
70053;BME280;57398;52.032;4.376;2023-01-26T07:07:33;102870.63;;;4.62;100.00
70053;BME280;57398;52.032;4.376;2023-01-26T07:10:21;102868.03;;;4.62;100.00
70053;BME280;57398;52.032;4.376;2023-01-26T07:13:09;102861.81;;;4.65;100.00
70053;BME280;57398;52.032;4.376;2023-01-26T07:16:01;102876.88;;;4.69;100.00
70053;BME280;57398;52.032;4.376;2023-01-26T07:18:51;102874.56;;;4.66;100.00
70053;BME280;57398;52.032;4.376;2023-01-26T07:21:39;102875.06;;;4.60;100.00
70053;BME280;57398;52.032;4.376;2023-01-26T07:24:27;102878.72;;;4.57;100.00
70053;BME280;57398;52.032;4.376;2023-01-26T07:27:16;102871.38;;;4.53;100.00
70053;BME280;57398;52.032;4.376;2023-01-26T07:30:05;102863.34;;;4.46;100.00
70053;BME280;57398;52.032;4.376;2023-01-26T07:32:58;102859.97;;;4.46;100.00
70053;BME280;57398;52.032;4.376;2023-01-26T07:35:46;102855.63;;;4.46;100.00
70053;BME280;57398;52.032;4.376;2023-01-26T07:38:34;102857.06;;;4.29;100.00
70053;BME280;57398;52.032;4.376;2023-01-26T07:41:22;102856.78;;;4.32;100.00
70053;BME280;57398;52.032;4.376;2023-01-26T07:44:10;102856.75;;;4.23;100.00
70053;BME280;57398;52.032;4.376;2023-01-26T07:46:58;102859.00;;;4.16;100.00
70053;BME280;57398;52.032;4.376;2023-01-26T07:49:47;102862.25;;;4.18;100.00
70053;BME280;57398;52.032;4.376;2023-01-26T07:52:35;102861.03;;;4.12;100.00
70053;BME280;57398;52.032;4.376;2023-01-26T07:55:24;102864.41;;;4.13;100.00
70053;BME280;57398;52.032;4.376;2023-01-26T07:58:12;102871.41;;;4.11;100.00
70053;BME280;57398;52.032;4.376;2023-01-26T08:01:08;102869.78;;;4.10;100.00
70053;BME280;57398;52.032;4.376;2023-01-26T08:03:56;102879.47;;;4.17;100.00
70053;BME280;57398;52.032;4.376;2023-01-26T08:06:46;102880.75;;;4.12;100.00
70053;BME280;57398;52.032;4.376;2023-01-26T08:09:35;102876.81;;;4.08;100.00
70053;BME280;57398;52.032;4.376;2023-01-26T08:12:23;102887.81;;;3.98;100.00
70053;BME280;57398;52.032;4.376;2023-01-26T08:15:12;102890.66;;;3.95;100.00
70053;BME280;57398;52.032;4.376;2023-01-26T08:18:01;102892.78;;;3.90;100.00
70053;BME280;57398;52.032;4.376;2023-01-26T08:20:51;102889.78;;;3.85;100.00
70053;BME280;57398;52.032;4.376;2023-01-26T08:23:40;102897.50;;;3.85;100.00
70053;BME280;57398;52.032;4.376;2023-01-26T08:26:28;102897.44;;;3.96;100.00
70053;BME280;57398;52.032;4.376;2023-01-26T08:29:17;102894.38;;;4.03;100.00
70053;BME280;57398;52.032;4.376;2023-01-26T08:32:06;102900.78;;;4.08;100.00
70053;BME280;57398;52.032;4.376;2023-01-26T08:34:55;102899.03;;;4.09;100.00
70053;BME280;57398;52.032;4.376;2023-01-26T08:37:43;102904.16;;;4.09;100.00
70053;BME280;57398;52.032;4.376;2023-01-26T08:40:32;102908.72;;;4.05;100.00
70053;BME280;57398;52.032;4.376;2023-01-26T08:43:20;102908.13;;;4.13;100.00
70053;BME280;57398;52.032;4.376;2023-01-26T08:46:09;102901.22;;;4.13;100.00
70053;BME280;57398;52.032;4.376;2023-01-26T08:48:57;102905.19;;;4.17;100.00
70053;BME280;57398;52.032;4.376;2023-01-26T08:51:46;102895.97;;;4.15;100.00
70053;BME280;57398;52.032;4.376;2023-01-26T08:54:34;102900.16;;;4.16;100.00
70053;BME280;57398;52.032;4.376;2023-01-26T08:57:23;102904.13;;;4.20;100.00
70053;BME280;57398;52.032;4.376;2023-01-26T09:00:13;102916.22;;;4.29;100.00
70053;BME280;57398;52.032;4.376;2023-01-26T09:03:03;102911.63;;;4.33;100.00
70053;BME280;57398;52.032;4.376;2023-01-26T09:05:51;102917.41;;;4.46;100.00
70053;BME280;57398;52.032;4.376;2023-01-26T09:08:40;102926.06;;;4.45;100.00
70053;BME280;57398;52.032;4.376;2023-01-26T09:11:28;102918.34;;;4.45;100.00
70053;BME280;57398;52.032;4.376;2023-01-26T09:14:18;102926.94;;;4.55;100.00
70053;BME280;57398;52.032;4.376;2023-01-26T09:17:07;102933.91;;;4.65;100.00
70053;BME280;57398;52.032;4.376;2023-01-26T09:19:55;102943.28;;;4.66;100.00
70053;BME280;57398;52.032;4.376;2023-01-26T09:22:43;102941.78;;;4.63;100.00
70053;BME280;57398;52.032;4.376;2023-01-26T09:25:31;102942.88;;;4.70;100.00
70053;BME280;57398;52.032;4.376;2023-01-26T09:28:19;102932.22;;;4.75;100.00
70053;BME280;57398;52.032;4.376;2023-01-26T09:31:09;102942.13;;;4.79;100.00
70053;BME280;57398;52.032;4.376;2023-01-26T09:33:58;102935.78;;;4.83;100.00
70053;BME280;57398;52.032;4.376;2023-01-26T09:36:46;102943.41;;;4.95;100.00
70053;BME280;57398;52.032;4.376;2023-01-26T09:39:34;102940.50;;;5.09;100.00
70053;BME280;57398;52.032;4.376;2023-01-26T09:42:30;102942.69;;;5.23;100.00
70053;BME280;57398;52.032;4.376;2023-01-26T09:45:26;102936.47;;;5.26;100.00
70053;BME280;57398;52.032;4.376;2023-01-26T09:48:21;102937.81;;;5.20;100.00
70053;BME280;57398;52.032;4.376;2023-01-26T09:51:18;102940.13;;;5.23;100.00
70053;BME280;57398;52.032;4.376;2023-01-26T09:54:17;102932.66;;;5.20;100.00
70053;BME280;57398;52.032;4.376;2023-01-26T09:57:11;102940.53;;;5.29;100.00
70053;BME280;57398;52.032;4.376;2023-01-26T10:00:04;102940.16;;;5.33;100.00
70053;BME280;57398;52.032;4.376;2023-01-26T10:03:04;102950.06;;;5.38;100.00
70053;BME280;57398;52.032;4.376;2023-01-26T10:06:03;102952.25;;;5.42;100.00
70053;BME280;57398;52.032;4.376;2023-01-26T10:08:53;102938.28;;;5.45;100.00
70053;BME280;57398;52.032;4.376;2023-01-26T10:11:43;102943.59;;;5.53;100.00
70053;BME280;57398;52.032;4.376;2023-01-26T10:14:36;102932.75;;;5.59;100.00
70053;BME280;57398;52.032;4.376;2023-01-26T10:17:30;102930.72;;;5.63;100.00
70053;BME280;57398;52.032;4.376;2023-01-26T10:20:27;102936.31;;;5.68;100.00
70053;BME280;57398;52.032;4.376;2023-01-26T10:23:19;102934.13;;;5.73;100.00
70053;BME280;57398;52.032;4.376;2023-01-26T10:26:12;102934.81;;;5.75;100.00
70053;BME280;57398;52.032;4.376;2023-01-26T10:29:00;102914.88;;;5.77;100.00
70053;BME280;57398;52.032;4.376;2023-01-26T10:31:48;102921.94;;;5.85;100.00
70053;BME280;57398;52.032;4.376;2023-01-26T10:34:37;102927.75;;;5.87;100.00
70053;BME280;57398;52.032;4.376;2023-01-26T10:37:28;102922.19;;;5.92;100.00
70053;BME280;57398;52.032;4.376;2023-01-26T10:40:19;102923.59;;;5.96;100.00
70053;BME280;57398;52.032;4.376;2023-01-26T10:43:16;102920.31;;;6.03;100.00
70053;BME280;57398;52.032;4.376;2023-01-26T10:46:05;102923.31;;;6.08;100.00
70053;BME280;57398;52.032;4.376;2023-01-26T10:48:54;102918.97;;;6.19;100.00
70053;BME280;57398;52.032;4.376;2023-01-26T10:51:43;102906.28;;;6.45;100.00
70053;BME280;57398;52.032;4.376;2023-01-26T10:54:31;102909.31;;;6.68;100.00
70053;BME280;57398;52.032;4.376;2023-01-26T10:57:26;102899.38;;;6.73;100.00
70053;BME280;57398;52.032;4.376;2023-01-26T11:00:23;102901.88;;;6.65;100.00
70053;BME280;57398;52.032;4.376;2023-01-26T11:03:17;102896.28;;;6.69;100.00
70053;BME280;57398;52.032;4.376;2023-01-26T11:06:07;102891.69;;;6.63;100.00
70053;BME280;57398;52.032;4.376;2023-01-26T11:09:15;102885.16;;;6.59;100.00
70053;BME280;57398;52.032;4.376;2023-01-26T11:12:04;102883.59;;;6.48;100.00
70053;BME280;57398;52.032;4.376;2023-01-26T11:15:00;102883.59;;;6.48;100.00
70053;BME280;57398;52.032;4.376;2023-01-26T11:17:59;102879.22;;;6.49;100.00
70053;BME280;57398;52.032;4.376;2023-01-26T11:20:58;102880.53;;;6.63;100.00
70053;BME280;57398;52.032;4.376;2023-01-26T11:23:58;102879.88;;;6.88;100.00
70053;BME280;57398;52.032;4.376;2023-01-26T11:27:05;102885.28;;;6.95;100.00
70053;BME280;57398;52.032;4.376;2023-01-26T11:30:30;102885.63;;;6.82;100.00
70053;BME280;57398;52.032;4.376;2023-01-26T11:33:28;102886.22;;;6.66;100.00
70053;BME280;57398;52.032;4.376;2023-01-26T11:36:23;102893.84;;;6.68;100.00
70053;BME280;57398;52.032;4.376;2023-01-26T11:39:20;102889.59;;;6.77;100.00
70053;BME280;57398;52.032;4.376;2023-01-26T11:42:19;102903.06;;;6.70;100.00
70053;BME280;57398;52.032;4.376;2023-01-26T11:45:19;102894.50;;;6.70;100.00
70053;BME280;57398;52.032;4.376;2023-01-26T11:48:17;102907.41;;;6.70;100.00
70053;BME280;57398;52.032;4.376;2023-01-26T11:51:17;102914.63;;;6.66;100.00
70053;BME280;57398;52.032;4.376;2023-01-26T11:54:22;102914.91;;;6.63;100.00
70053;BME280;57398;52.032;4.376;2023-01-26T11:57:21;102903.78;;;6.63;100.00
70053;BME280;57398;52.032;4.376;2023-01-26T12:00:17;102896.72;;;6.65;100.00
70053;BME280;57398;52.032;4.376;2023-01-26T12:03:21;102907.97;;;6.74;100.00
70053;BME280;57398;52.032;4.376;2023-01-26T12:06:15;102887.25;;;6.83;100.00
70053;BME280;57398;52.032;4.376;2023-01-26T12:09:05;102884.69;;;6.83;100.00
70053;BME280;57398;52.032;4.376;2023-01-26T12:12:01;102868.88;;;6.86;100.00
70053;BME280;57398;52.032;4.376;2023-01-26T12:14:55;102865.63;;;6.84;100.00
70053;BME280;57398;52.032;4.376;2023-01-26T12:17:55;102859.66;;;6.84;100.00
70053;BME280;57398;52.032;4.376;2023-01-26T12:20:48;102866.16;;;6.88;100.00
70053;BME280;57398;52.032;4.376;2023-01-26T12:23:45;102858.59;;;6.77;100.00
70053;BME280;57398;52.032;4.376;2023-01-26T12:26:40;102865.63;;;6.84;100.00
70053;BME280;57398;52.032;4.376;2023-01-26T12:29:36;102858.91;;;6.64;100.00
70053;BME280;57398;52.032;4.376;2023-01-26T12:32:28;102860.63;;;6.73;100.00
70053;BME280;57398;52.032;4.376;2023-01-26T12:35:26;102859.59;;;6.93;100.00
70053;BME280;57398;52.032;4.376;2023-01-26T12:38:23;102873.78;;;7.07;100.00
70053;BME280;57398;52.032;4.376;2023-01-26T12:41:18;102868.63;;;7.07;100.00
70053;BME280;57398;52.032;4.376;2023-01-26T12:44:17;102850.41;;;7.09;100.00
70053;BME280;57398;52.032;4.376;2023-01-26T12:47:13;102844.13;;;7.11;100.00
70053;BME280;57398;52.032;4.376;2023-01-26T12:50:09;102850.41;;;7.09;100.00
70053;BME280;57398;52.032;4.376;2023-01-26T12:53:05;102824.44;;;7.10;100.00
70053;BME280;57398;52.032;4.376;2023-01-26T12:55:58;102827.44;;;7.06;100.00
70053;BME280;57398;52.032;4.376;2023-01-26T12:58:51;102826.47;;;7.07;100.00
70053;BME280;57398;52.032;4.376;2023-01-26T13:01:41;102832.22;;;7.01;100.00
70053;BME280;57398;52.032;4.376;2023-01-26T13:04:30;102829.03;;;6.89;100.00
70053;BME280;57398;52.032;4.376;2023-01-26T13:07:28;102834.50;;;6.86;100.00
70053;BME280;57398;52.032;4.376;2023-01-26T13:10:27;102833.44;;;6.79;100.00
70053;BME280;57398;52.032;4.376;2023-01-26T13:13:26;102843.78;;;6.79;100.00
70053;BME280;57398;52.032;4.376;2023-01-26T13:16:33;102845.81;;;6.75;100.00
70053;BME280;57398;52.032;4.376;2023-01-26T13:19:34;102853.00;;;6.81;100.00
70053;BME280;57398;52.032;4.376;2023-01-26T13:22:39;102849.66;;;6.99;100.00
70053;BME280;57398;52.032;4.376;2023-01-26T13:25:30;102845.72;;;6.95;100.00
70053;BME280;57398;52.032;4.376;2023-01-26T13:28:25;102852.13;;;6.90;100.00
70053;BME280;57398;52.032;4.376;2023-01-26T13:31:29;102850.22;;;6.92;100.00
70053;BME280;57398;52.032;4.376;2023-01-26T13:34:20;102852.13;;;6.90;100.00
70053;BME280;57398;52.032;4.376;2023-01-26T13:37:12;102848.13;;;6.78;100.00
70053;BME280;57398;52.032;4.376;2023-01-26T13:40:04;102851.41;;;6.70;100.00
70053;BME280;57398;52.032;4.376;2023-01-26T13:43:00;102849.19;;;6.76;100.00
70053;BME280;57398;52.032;4.376;2023-01-26T13:46:10;102844.03;;;6.76;100.00
70053;BME280;57398;52.032;4.376;2023-01-26T13:49:00;102850.41;;;6.81;100.00
70053;BME280;57398;52.032;4.376;2023-01-26T13:51:48;102850.72;;;6.78;100.00
70053;BME280;57398;52.032;4.376;2023-01-26T13:54:39;102841.19;;;6.79;100.00
70053;BME280;57398;52.032;4.376;2023-01-26T13:57:29;102841.44;;;6.85;100.00
70053;BME280;57398;52.032;4.376;2023-01-26T14:00:19;102844.19;;;6.74;100.00
70053;BME280;57398;52.032;4.376;2023-01-26T14:03:19;102854.00;;;6.70;100.00
70053;BME280;57398;52.032;4.376;2023-01-26T14:06:12;102854.59;;;6.64;100.00
70053;BME280;57398;52.032;4.376;2023-01-26T14:09:02;102848.88;;;6.61;100.00
70053;BME280;57398;52.032;4.376;2023-01-26T14:11:55;102840.84;;;6.64;100.00
70053;BME280;57398;52.032;4.376;2023-01-26T14:14:46;102849.13;;;6.67;100.00
70053;BME280;57398;52.032;4.376;2023-01-26T14:17:46;102849.00;;;6.69;100.00
70053;BME280;57398;52.032;4.376;2023-01-26T14:20:37;102838.75;;;6.77;100.00
70053;BME280;57398;52.032;4.376;2023-01-26T14:23:26;102827.66;;;6.67;100.00
70053;BME280;57398;52.032;4.376;2023-01-26T14:26:18;102821.91;;;6.73;100.00
70053;BME280;57398;52.032;4.376;2023-01-26T14:29:18;102805.03;;;6.79;100.00
70053;BME280;57398;52.032;4.376;2023-01-26T14:32:13;102821.03;;;6.82;100.00
70053;BME280;57398;52.032;4.376;2023-01-26T14:35:18;102823.53;;;6.74;100.00
70053;BME280;57398;52.032;4.376;2023-01-26T14:38:13;102812.84;;;6.69;100.00
70053;BME280;57398;52.032;4.376;2023-01-26T14:41:02;102816.66;;;6.65;100.00
70053;BME280;57398;52.032;4.376;2023-01-26T14:43:51;102848.06;;;6.60;100.00
70053;BME280;57398;52.032;4.376;2023-01-26T14:46:52;102848.88;;;6.61;100.00
70053;BME280;57398;52.032;4.376;2023-01-26T14:49:45;102852.31;;;6.52;100.00
70053;BME280;57398;52.032;4.376;2023-01-26T14:52:38;102852.59;;;6.48;100.00
70053;BME280;57398;52.032;4.376;2023-01-26T14:55:27;102861.97;;;6.49;100.00
70053;BME280;57398;52.032;4.376;2023-01-26T14:58:19;102857.34;;;6.43;100.00
70053;BME280;57398;52.032;4.376;2023-01-26T15:01:08;102860.78;;;6.44;100.00